createdAt,value
2022-10-20T00:00:32.894Z,999.53
2022-10-20T00:01:32.887Z,999.60
2022-10-20T00:02:32.959Z,999.51
2022-10-20T00:03:32.901Z,999.58
2022-10-20T00:04:32.863Z,999.57
2022-10-20T00:05:32.850Z,999.60
2022-10-20T00:06:32.848Z,999.54
2022-10-20T00:07:32.839Z,999.55
2022-10-20T00:08:32.904Z,999.46
2022-10-20T00:09:32.824Z,999.52
2022-10-20T00:10:32.817Z,999.50
2022-10-20T00:11:32.811Z,999.55
2022-10-20T00:12:32.987Z,999.49
2022-10-20T00:13:32.821Z,999.50
2022-10-20T00:14:32.783Z,999.52
2022-10-20T00:15:32.773Z,999.54
2022-10-20T00:16:32.769Z,999.49
2022-10-20T00:17:32.761Z,999.51
2022-10-20T00:18:32.777Z,999.58
2022-10-20T00:19:32.742Z,999.54
2022-10-20T00:20:32.735Z,999.52
2022-10-20T00:21:32.727Z,999.52
2022-10-20T00:22:32.866Z,999.51
2022-10-20T00:23:32.748Z,999.51
2022-10-20T00:24:32.708Z,999.43
2022-10-20T00:25:32.695Z,999.43
2022-10-20T00:26:32.686Z,999.47
2022-10-20T00:27:32.678Z,999.38
2022-10-20T00:28:32.669Z,999.39
2022-10-20T00:29:32.676Z,999.38
2022-10-20T00:30:33.651Z,999.33
2022-10-20T00:31:32.645Z,999.33
2022-10-20T00:32:32.966Z,999.32
2022-10-20T00:33:32.657Z,999.32
2022-10-20T00:34:32.622Z,999.27
2022-10-20T00:35:32.609Z,999.35
2022-10-20T00:36:32.602Z,999.32
2022-10-20T00:37:32.593Z,999.37
2022-10-20T00:38:32.611Z,999.30
2022-10-20T00:39:32.578Z,999.39
2022-10-20T00:40:32.573Z,999.31
2022-10-20T00:41:32.561Z,999.35
2022-10-20T00:42:32.857Z,999.29
2022-10-20T00:43:32.577Z,999.28
2022-10-20T00:44:32.542Z,999.29
2022-10-20T00:45:32.536Z,999.28
2022-10-20T00:46:32.519Z,999.26
2022-10-20T00:47:32.531Z,999.27
2022-10-20T00:48:32.534Z,999.20
2022-10-20T00:49:32.500Z,999.22
2022-10-20T00:50:32.493Z,999.22
2022-10-20T00:51:32.490Z,999.26
2022-10-20T00:52:32.672Z,999.18
2022-10-20T00:53:32.500Z,999.15
2022-10-20T00:54:32.462Z,999.14
2022-10-20T00:55:32.454Z,999.14
2022-10-20T00:56:32.447Z,999.12
2022-10-20T00:57:32.678Z,999.04
2022-10-20T00:58:32.457Z,999.09
2022-10-20T00:59:32.426Z,999.09
2022-10-20T01:00:32.414Z,999.11
2022-10-20T01:01:32.456Z,999.10
2022-10-20T01:02:32.406Z,999.06
2022-10-20T01:03:32.420Z,999.01
2022-10-20T01:04:32.390Z,998.98
2022-10-20T01:05:32.375Z,998.93
2022-10-20T01:06:32.374Z,998.98
2022-10-20T01:07:32.423Z,998.96
2022-10-20T01:08:32.421Z,998.91
2022-10-20T01:09:32.347Z,998.93
2022-10-20T01:10:32.345Z,998.90
2022-10-20T01:11:32.331Z,998.91
2022-10-20T01:12:32.323Z,998.88
2022-10-20T01:13:32.339Z,998.81
2022-10-20T01:14:32.308Z,998.86
2022-10-20T01:15:32.304Z,998.84
2022-10-20T01:16:32.289Z,998.90
2022-10-20T01:17:32.315Z,998.82
2022-10-20T01:18:32.316Z,998.88
2022-10-20T01:19:32.268Z,998.91
2022-10-20T01:20:32.257Z,998.91
2022-10-20T01:21:32.255Z,998.87
2022-10-20T01:22:32.246Z,998.85
2022-10-20T01:23:32.267Z,998.85
2022-10-20T01:24:32.236Z,998.79
2022-10-20T01:25:32.224Z,998.73
2022-10-20T01:26:32.214Z,998.70
2022-10-20T01:27:32.207Z,998.71
2022-10-20T01:28:32.234Z,998.68
2022-10-20T01:29:32.194Z,998.67
2022-10-20T01:30:32.189Z,998.69
2022-10-20T01:31:32.176Z,998.68
2022-10-20T01:32:32.172Z,998.66
2022-10-20T01:33:32.196Z,998.72
2022-10-20T01:34:32.156Z,998.69
2022-10-20T01:35:32.144Z,998.67
2022-10-20T01:36:32.141Z,998.70
2022-10-20T01:37:48.575Z,998.70
2022-10-20T01:38:34.158Z,998.68
2022-10-20T01:39:32.117Z,998.68
2022-10-20T01:40:32.118Z,998.66
2022-10-20T01:41:32.103Z,998.66
2022-10-20T01:42:32.171Z,998.61
2022-10-20T01:43:32.125Z,998.61
2022-10-20T01:44:32.087Z,998.57
2022-10-20T01:45:32.079Z,998.56
2022-10-20T01:46:32.073Z,998.50
2022-10-20T01:47:32.068Z,998.51
2022-10-20T01:48:32.058Z,998.46
2022-10-20T01:49:32.078Z,998.49
2022-10-20T01:50:32.048Z,998.39
2022-10-20T01:51:32.084Z,998.39
2022-10-20T01:52:32.027Z,998.29
2022-10-20T01:53:32.052Z,998.28
2022-10-20T01:54:32.017Z,998.32
2022-10-20T01:55:32.002Z,998.37
2022-10-20T01:56:31.996Z,998.36
2022-10-20T01:57:31.990Z,998.31
2022-10-20T01:58:31.978Z,998.33
2022-10-20T01:59:31.992Z,998.27
2022-10-20T02:00:31.960Z,998.31
2022-10-20T02:01:32.044Z,998.19
2022-10-20T02:02:31.949Z,998.20
2022-10-20T02:03:31.947Z,998.14
2022-10-20T02:04:31.956Z,998.16
2022-10-20T02:05:31.925Z,998.14
2022-10-20T02:06:31.914Z,998.12
2022-10-20T02:07:31.910Z,998.14
2022-10-20T02:08:32.038Z,998.09
2022-10-20T02:09:31.923Z,998.09
2022-10-20T02:10:31.893Z,998.10
2022-10-20T02:11:31.890Z,998.08
2022-10-20T02:12:31.873Z,998.06
2022-10-20T02:13:31.863Z,998.04
2022-10-20T02:14:31.886Z,997.98
2022-10-20T02:15:31.854Z,998.03
2022-10-20T02:16:31.848Z,998.02
2022-10-20T02:17:31.842Z,998.09
2022-10-20T02:18:31.831Z,998.07
2022-10-20T02:19:31.843Z,998.05
2022-10-20T02:20:31.821Z,998.01
2022-10-20T02:21:31.804Z,998.02
2022-10-20T02:22:31.798Z,997.99
2022-10-20T02:23:35.108Z,998.00
2022-10-20T02:24:33.806Z,997.93
2022-10-20T02:25:31.777Z,997.91
2022-10-20T02:26:31.768Z,997.93
2022-10-20T02:27:31.758Z,997.95
2022-10-20T02:28:31.755Z,997.99
2022-10-20T02:29:31.771Z,997.94
2022-10-20T02:30:31.734Z,997.89
2022-10-20T02:31:31.727Z,997.94
2022-10-20T02:32:31.716Z,997.92
2022-10-20T02:33:31.711Z,997.94
2022-10-20T02:34:31.733Z,997.94
2022-10-20T02:35:31.701Z,997.93
2022-10-20T02:36:31.693Z,997.88
2022-10-20T02:37:31.687Z,997.85
2022-10-20T02:38:31.677Z,997.90
2022-10-20T02:39:31.693Z,997.87
2022-10-20T02:40:31.664Z,997.89
2022-10-20T02:41:31.653Z,997.94
2022-10-20T02:42:31.690Z,997.95
2022-10-20T02:43:31.645Z,997.89
2022-10-20T02:44:31.667Z,997.89
2022-10-20T02:45:31.624Z,997.87
2022-10-20T02:46:31.612Z,997.91
2022-10-20T02:47:32.615Z,997.92
2022-10-20T02:48:31.606Z,997.90
2022-10-20T02:49:31.622Z,997.90
2022-10-20T02:50:31.590Z,997.94
2022-10-20T02:51:31.588Z,997.93
2022-10-20T02:52:31.576Z,997.90
2022-10-20T02:53:31.568Z,997.89
2022-10-20T02:54:31.585Z,997.90
2022-10-20T02:55:31.555Z,997.89
2022-10-20T02:56:31.545Z,997.81
2022-10-20T02:57:31.537Z,997.86
2022-10-20T02:58:31.548Z,997.89
2022-10-20T02:59:31.552Z,997.88
2022-10-20T03:00:31.519Z,997.93
2022-10-20T03:01:31.585Z,997.91
2022-10-20T03:02:31.503Z,997.96
2022-10-20T03:03:31.490Z,997.88
2022-10-20T03:04:31.511Z,997.85
2022-10-20T03:05:31.480Z,997.84
2022-10-20T03:06:31.474Z,997.79
2022-10-20T03:07:31.465Z,997.75
2022-10-20T03:08:31.571Z,997.74
2022-10-20T03:09:31.460Z,997.67
2022-10-20T03:10:32.442Z,997.68
2022-10-20T03:11:31.429Z,997.68
2022-10-20T03:12:32.290Z,997.70
2022-10-20T03:13:32.424Z,997.74
2022-10-20T03:14:31.431Z,997.73
2022-10-20T03:15:31.397Z,997.70
2022-10-20T03:16:31.393Z,997.70
2022-10-20T03:17:31.385Z,997.72
2022-10-20T03:18:31.377Z,997.79
2022-10-20T03:19:31.395Z,997.73
2022-10-20T03:20:31.357Z,997.67
2022-10-20T03:21:31.354Z,997.70
2022-10-20T03:22:31.351Z,997.67
2022-10-20T03:23:31.343Z,997.63
2022-10-20T03:24:31.358Z,997.66
2022-10-20T03:25:31.323Z,997.61
2022-10-20T03:26:31.314Z,997.65
2022-10-20T03:27:31.310Z,997.58
2022-10-20T03:28:31.313Z,997.54
2022-10-20T03:29:31.315Z,997.52
2022-10-20T03:30:31.307Z,997.53
2022-10-20T03:31:31.279Z,997.49
2022-10-20T03:32:31.273Z,997.49
2022-10-20T03:33:31.262Z,997.42
2022-10-20T03:34:31.279Z,997.46
2022-10-20T03:35:31.241Z,997.49
2022-10-20T03:36:32.239Z,997.44
2022-10-20T03:37:31.235Z,997.42
2022-10-20T03:38:31.225Z,997.44
2022-10-20T03:39:31.243Z,997.42
2022-10-20T03:40:31.213Z,997.40
2022-10-20T03:41:31.200Z,997.40
2022-10-20T03:42:31.193Z,997.34
2022-10-20T03:43:31.188Z,997.35
2022-10-20T03:44:31.206Z,997.38
2022-10-20T03:45:31.173Z,997.33
2022-10-20T03:46:31.170Z,997.26
2022-10-20T03:47:31.171Z,997.24
2022-10-20T03:48:31.151Z,997.28
2022-10-20T03:49:31.172Z,997.23
2022-10-20T03:50:31.139Z,997.22
2022-10-20T03:51:31.129Z,997.25
2022-10-20T03:52:31.123Z,997.22
2022-10-20T03:53:31.120Z,997.18
2022-10-20T03:54:31.141Z,997.15
2022-10-20T03:55:31.103Z,997.24
2022-10-20T03:56:31.104Z,997.19
2022-10-20T03:57:31.089Z,997.18
2022-10-20T03:58:31.088Z,997.18
2022-10-20T03:59:31.078Z,997.31
2022-10-20T04:00:31.093Z,997.27
2022-10-20T04:01:31.109Z,997.22
2022-10-20T04:02:31.056Z,997.22
2022-10-20T04:03:31.052Z,997.20
2022-10-20T04:04:31.027Z,997.21
2022-10-20T04:05:32.059Z,997.19
2022-10-20T04:06:31.032Z,997.23
2022-10-20T04:07:31.020Z,997.21
2022-10-20T04:08:31.062Z,997.26
2022-10-20T04:09:31.017Z,997.27
2022-10-20T04:10:31.022Z,997.29
2022-10-20T04:11:30.995Z,997.24
2022-10-20T04:12:30.989Z,997.31
2022-10-20T04:13:30.980Z,997.34
2022-10-20T04:14:30.974Z,997.37
2022-10-20T04:15:30.990Z,997.40
2022-10-20T04:16:30.956Z,997.33
2022-10-20T04:17:30.974Z,997.38
2022-10-20T04:18:30.928Z,997.34
2022-10-20T04:19:31.932Z,997.32
2022-10-20T04:20:30.959Z,997.30
2022-10-20T04:21:30.926Z,997.28
2022-10-20T04:22:30.915Z,997.23
2022-10-20T04:23:30.906Z,997.24
2022-10-20T04:24:30.897Z,997.26
2022-10-20T04:25:30.919Z,997.27
2022-10-20T04:26:30.881Z,997.25
2022-10-20T04:27:30.874Z,997.25
2022-10-20T04:28:30.868Z,997.20
2022-10-20T04:29:30.858Z,997.24
2022-10-20T04:30:30.876Z,997.22
2022-10-20T04:31:30.844Z,997.11
2022-10-20T04:32:30.839Z,997.15
2022-10-20T04:33:30.833Z,997.16
2022-10-20T04:34:30.823Z,997.20
2022-10-20T04:35:30.836Z,997.16
2022-10-20T04:36:30.809Z,997.14
2022-10-20T04:37:30.802Z,997.10
2022-10-20T04:38:30.793Z,997.14
2022-10-20T04:39:30.784Z,997.12
2022-10-20T04:40:30.805Z,997.09
2022-10-20T04:41:30.767Z,997.11
2022-10-20T04:42:30.758Z,997.04
2022-10-20T04:43:30.753Z,997.06
2022-10-20T04:44:30.746Z,997.05
2022-10-20T04:45:30.762Z,997.00
2022-10-20T04:46:30.724Z,997.06
2022-10-20T04:47:31.724Z,997.05
2022-10-20T04:48:30.718Z,997.04
2022-10-20T04:49:30.710Z,997.06
2022-10-20T04:50:30.766Z,997.00
2022-10-20T04:51:30.693Z,997.03
2022-10-20T04:52:30.688Z,996.93
2022-10-20T04:53:30.682Z,996.97
2022-10-20T04:54:30.675Z,996.94
2022-10-20T04:55:30.688Z,996.86
2022-10-20T04:56:30.654Z,996.84
2022-10-20T04:57:30.654Z,996.85
2022-10-20T04:58:30.642Z,996.80
2022-10-20T04:59:30.640Z,996.82
2022-10-20T05:00:30.658Z,996.86
2022-10-20T05:01:30.642Z,996.85
2022-10-20T05:02:30.618Z,996.80
2022-10-20T05:03:30.607Z,996.81
2022-10-20T05:04:30.605Z,996.84
2022-10-20T05:05:30.620Z,996.85
2022-10-20T05:06:30.588Z,996.82
2022-10-20T05:07:30.579Z,996.70
2022-10-20T05:08:30.630Z,996.74
2022-10-20T05:09:30.597Z,996.68
2022-10-20T05:10:34.417Z,996.60
2022-10-20T05:11:32.552Z,996.64
2022-10-20T05:12:30.542Z,996.64
2022-10-20T05:13:30.530Z,996.66
2022-10-20T05:14:30.523Z,996.64
2022-10-20T05:15:30.549Z,996.65
2022-10-20T05:16:30.521Z,996.62
2022-10-20T05:17:30.506Z,996.60
2022-10-20T05:18:30.494Z,996.58
2022-10-20T05:19:30.492Z,996.62
2022-10-20T05:20:36.789Z,996.55
2022-10-20T05:21:32.583Z,996.55
2022-10-20T05:22:30.469Z,996.60
2022-10-20T05:23:30.464Z,996.56
2022-10-20T05:24:30.458Z,996.54
2022-10-20T05:25:36.424Z,996.48
2022-10-20T05:26:32.440Z,996.49
2022-10-20T05:27:30.434Z,996.39
2022-10-20T05:28:30.431Z,996.36
2022-10-20T05:29:30.426Z,996.36
2022-10-20T05:30:30.459Z,996.34
2022-10-20T05:31:30.431Z,996.36
2022-10-20T05:32:30.406Z,996.37
2022-10-20T05:33:30.392Z,996.39
2022-10-20T05:34:30.380Z,996.28
2022-10-20T05:35:30.556Z,996.43
2022-10-20T05:36:30.374Z,996.40
2022-10-20T05:37:30.364Z,996.40
2022-10-20T05:38:30.355Z,996.32
2022-10-20T05:39:30.340Z,996.40
2022-10-20T05:40:30.360Z,996.36
2022-10-20T05:41:32.212Z,996.31
2022-10-20T05:42:30.328Z,996.34
2022-10-20T05:43:30.309Z,996.29
2022-10-20T05:44:30.309Z,996.31
2022-10-20T05:45:30.327Z,996.35
2022-10-20T05:46:30.292Z,996.38
2022-10-20T05:47:30.287Z,996.38
2022-10-20T05:48:30.276Z,996.30
2022-10-20T05:49:30.267Z,996.27
2022-10-20T05:50:30.288Z,996.25
2022-10-20T05:51:30.258Z,996.32
2022-10-20T05:52:30.241Z,996.24
2022-10-20T05:53:30.238Z,996.22
2022-10-20T05:54:30.236Z,996.14
2022-10-20T05:55:30.253Z,996.19
2022-10-20T05:56:30.219Z,996.23
2022-10-20T05:57:30.212Z,996.23
2022-10-20T05:58:30.202Z,996.16
2022-10-20T05:59:30.195Z,996.21
2022-10-20T06:00:30.333Z,996.22
2022-10-20T06:01:30.264Z,996.22
2022-10-20T06:02:30.173Z,996.19
2022-10-20T06:03:30.167Z,996.14
2022-10-20T06:04:30.164Z,996.14
2022-10-20T06:05:30.173Z,996.09
2022-10-20T06:06:30.144Z,996.06
2022-10-20T06:07:30.137Z,996.07
2022-10-20T06:08:30.146Z,996.04
2022-10-20T06:09:30.120Z,996.12
2022-10-20T06:10:30.147Z,996.16
2022-10-20T06:11:30.100Z,996.10
2022-10-20T06:12:30.096Z,996.07
2022-10-20T06:13:30.088Z,996.08
2022-10-20T06:14:30.085Z,996.01
2022-10-20T06:15:30.108Z,996.08
2022-10-20T06:16:30.069Z,996.03
2022-10-20T06:17:30.064Z,995.98
2022-10-20T06:18:30.054Z,996.09
2022-10-20T06:19:30.043Z,996.05
2022-10-20T06:20:30.035Z,996.03
2022-10-20T06:21:30.085Z,995.99
2022-10-20T06:22:30.022Z,996.04
2022-10-20T06:23:30.009Z,996.06
2022-10-20T06:24:30.005Z,996.10
2022-10-20T06:25:29.994Z,996.04
2022-10-20T06:26:30.067Z,996.02
2022-10-20T06:27:29.978Z,996.10
2022-10-20T06:28:29.970Z,995.96
2022-10-20T06:29:29.967Z,996.02
2022-10-20T06:30:29.945Z,995.92
2022-10-20T06:31:30.997Z,995.97
2022-10-20T06:32:29.941Z,995.99
2022-10-20T06:33:29.936Z,995.95
2022-10-20T06:34:29.921Z,995.93
2022-10-20T06:35:29.913Z,995.80
2022-10-20T06:36:29.929Z,995.89
2022-10-20T06:37:29.898Z,995.89
2022-10-20T06:38:29.892Z,995.89
2022-10-20T06:39:29.882Z,995.87
2022-10-20T06:40:29.878Z,995.89
2022-10-20T06:41:29.902Z,995.81
2022-10-20T06:42:29.864Z,995.81
2022-10-20T06:43:29.855Z,995.81
2022-10-20T06:44:29.848Z,995.83
2022-10-20T06:45:29.836Z,995.84
2022-10-20T06:46:29.853Z,995.82
2022-10-20T06:47:29.829Z,995.84
2022-10-20T06:48:29.822Z,995.89
2022-10-20T06:49:29.810Z,995.86
2022-10-20T06:50:29.812Z,995.85
2022-10-20T06:51:29.828Z,995.88
2022-10-20T06:52:29.784Z,995.81
2022-10-20T06:53:29.788Z,995.87
2022-10-20T06:54:29.769Z,995.83
2022-10-20T06:55:29.753Z,995.82
2022-10-20T06:56:29.783Z,995.81
2022-10-20T06:57:29.747Z,995.78
2022-10-20T06:58:29.750Z,995.79
2022-10-20T06:59:29.727Z,995.89
2022-10-20T07:01:29.798Z,995.74
2022-10-20T07:02:29.704Z,995.73
2022-10-20T07:03:29.703Z,995.66
2022-10-20T07:04:29.692Z,995.75
2022-10-20T07:05:29.689Z,995.68
2022-10-20T07:06:29.709Z,995.68
2022-10-20T07:07:29.694Z,995.68
2022-10-20T07:08:29.676Z,995.59
2022-10-20T07:09:29.654Z,995.58
2022-10-20T07:10:29.647Z,995.59
2022-10-20T07:11:29.658Z,995.65
2022-10-20T07:12:29.627Z,995.69
2022-10-20T07:13:29.624Z,995.72
2022-10-20T07:14:32.390Z,995.74
2022-10-20T07:15:30.603Z,995.78
2022-10-20T07:16:29.620Z,995.79
2022-10-20T07:17:29.587Z,995.74
2022-10-20T07:18:29.584Z,995.72
2022-10-20T07:19:29.571Z,995.71
2022-10-20T07:20:29.560Z,995.75
2022-10-20T07:21:32.659Z,995.78
2022-10-20T07:22:31.549Z,995.80
2022-10-20T07:23:29.537Z,995.73
2022-10-20T07:24:29.532Z,995.76
2022-10-20T07:25:29.527Z,995.80
2022-10-20T07:26:29.529Z,995.74
2022-10-20T07:27:30.510Z,995.77
2022-10-20T07:28:29.498Z,995.77
2022-10-20T07:29:29.573Z,995.77
2022-10-20T07:30:29.491Z,995.78
2022-10-20T07:31:29.505Z,995.82
2022-10-20T07:32:29.470Z,995.83
2022-10-20T07:33:29.465Z,995.85
2022-10-20T07:34:29.463Z,995.79
2022-10-20T07:35:29.446Z,995.82
2022-10-20T07:36:33.540Z,995.81
2022-10-20T07:37:31.430Z,995.75
2022-10-20T07:38:29.420Z,995.73
2022-10-20T07:39:29.417Z,995.75
2022-10-20T07:40:29.407Z,995.72
2022-10-20T07:41:29.438Z,995.66
2022-10-20T07:42:29.395Z,995.72
2022-10-20T07:43:29.388Z,995.68
2022-10-20T07:44:29.387Z,995.72
2022-10-20T07:45:29.365Z,995.73
2022-10-20T07:46:29.378Z,995.80
2022-10-20T07:47:29.346Z,995.80
2022-10-20T07:48:29.341Z,995.79
2022-10-20T07:49:45.263Z,995.77
2022-10-20T07:50:31.326Z,995.80
2022-10-20T07:51:29.322Z,995.78
2022-10-20T07:52:29.330Z,995.78
2022-10-20T07:53:29.297Z,995.79
2022-10-20T07:54:29.296Z,995.74
2022-10-20T07:55:38.709Z,995.75
2022-10-20T07:56:31.303Z,995.67
2022-10-20T07:57:29.272Z,995.69
2022-10-20T07:58:29.263Z,995.62
2022-10-20T07:59:29.254Z,995.64
2022-10-20T08:00:29.292Z,995.66
2022-10-20T08:01:29.263Z,995.60
2022-10-20T08:02:29.261Z,995.50
2022-10-20T08:03:29.224Z,995.56
2022-10-20T08:04:29.218Z,995.57
2022-10-20T08:05:29.208Z,995.54
2022-10-20T08:06:29.200Z,995.51
2022-10-20T08:07:29.215Z,995.53
2022-10-20T08:08:29.245Z,995.59
2022-10-20T08:09:29.222Z,995.67
2022-10-20T08:10:29.169Z,995.57
2022-10-20T08:11:29.160Z,995.57
2022-10-20T08:12:29.172Z,995.55
2022-10-20T08:13:29.139Z,995.64
2022-10-20T08:14:29.135Z,995.59
2022-10-20T08:15:29.146Z,995.64
2022-10-20T08:16:30.865Z,995.61
2022-10-20T08:17:29.135Z,995.67
2022-10-20T08:18:30.308Z,995.63
2022-10-20T08:19:35.305Z,995.66
2022-10-20T08:20:31.810Z,995.66
2022-10-20T08:21:29.109Z,995.63
2022-10-20T08:22:29.091Z,995.65
2022-10-20T08:23:29.058Z,995.56
2022-10-20T08:24:29.054Z,995.62
2022-10-20T08:25:29.052Z,995.57
2022-10-20T08:26:29.037Z,995.59
2022-10-20T08:27:29.079Z,995.61
2022-10-20T08:28:29.030Z,995.57
2022-10-20T08:29:29.018Z,995.60
2022-10-20T08:30:29.021Z,995.60
2022-10-20T08:31:29.012Z,995.61
2022-10-20T08:32:29.026Z,995.61
2022-10-20T08:33:28.989Z,995.55
2022-10-20T08:34:28.985Z,995.58
2022-10-20T08:35:28.983Z,995.50
2022-10-20T08:36:28.971Z,995.47
2022-10-20T08:37:28.984Z,995.49
2022-10-20T08:38:28.999Z,995.47
2022-10-20T08:39:28.942Z,995.50
2022-10-20T08:40:28.933Z,995.45
2022-10-20T08:41:34.578Z,995.35
2022-10-20T08:42:30.942Z,995.38
2022-10-20T08:43:28.924Z,995.33
2022-10-20T08:44:28.910Z,995.33
2022-10-20T08:45:28.896Z,995.33
2022-10-20T08:46:28.885Z,995.32
2022-10-20T08:47:32.333Z,995.36
2022-10-20T08:48:28.873Z,995.34
2022-10-20T08:49:28.891Z,995.40
2022-10-20T08:50:28.857Z,995.34
2022-10-20T08:51:28.853Z,995.38
2022-10-20T08:52:28.862Z,995.33
2022-10-20T08:53:28.825Z,995.34
2022-10-20T08:54:28.824Z,995.32
2022-10-20T08:55:28.816Z,995.37
2022-10-20T08:56:28.804Z,995.30
2022-10-20T08:57:28.845Z,995.33
2022-10-20T08:58:28.794Z,995.27
2022-10-20T08:59:28.801Z,995.29
2022-10-20T09:00:28.787Z,995.25
2022-10-20T09:01:28.843Z,995.28
2022-10-20T09:02:28.791Z,995.31
2022-10-20T09:03:28.758Z,995.26
2022-10-20T09:04:28.740Z,995.22
2022-10-20T09:05:28.732Z,995.24
2022-10-20T09:06:28.728Z,995.20
2022-10-20T09:07:28.747Z,995.20
2022-10-20T09:08:28.764Z,995.13
2022-10-20T09:09:28.703Z,995.10
2022-10-20T09:10:28.691Z,995.12
2022-10-20T09:11:28.689Z,995.17
2022-10-20T09:12:31.043Z,995.12
2022-10-20T09:13:29.669Z,995.21
2022-10-20T09:14:28.670Z,995.15
2022-10-20T09:15:28.649Z,995.11
2022-10-20T09:16:41.030Z,995.14
2022-10-20T09:17:29.663Z,995.16
2022-10-20T09:18:28.632Z,995.11
2022-10-20T09:19:28.622Z,995.08
2022-10-20T09:20:28.622Z,995.07
2022-10-20T09:21:28.609Z,995.03
2022-10-20T09:22:33.363Z,995.04
2022-10-20T09:23:42.170Z,995.08
2022-10-20T09:24:30.587Z,994.99
2022-10-20T09:25:28.581Z,995.04
2022-10-20T09:26:44.960Z,994.97
2022-10-20T09:27:30.589Z,994.99
2022-10-20T09:28:34.225Z,994.96
2022-10-20T09:29:29.551Z,994.97
2022-10-20T09:30:28.540Z,994.96
2022-10-20T09:31:28.533Z,994.87
2022-10-20T09:32:45.670Z,994.91
2022-10-20T09:33:30.520Z,994.84
2022-10-20T09:34:28.518Z,994.83
2022-10-20T09:35:28.530Z,994.85
2022-10-20T09:36:28.504Z,994.77
2022-10-20T09:37:28.538Z,994.81
2022-10-20T09:38:28.487Z,994.78
2022-10-20T09:39:28.469Z,994.67
2022-10-20T09:40:28.464Z,994.65
2022-10-20T09:41:28.466Z,994.55
2022-10-20T09:42:28.455Z,994.55
2022-10-20T09:43:28.468Z,994.56
2022-10-20T09:44:28.440Z,994.52
2022-10-20T09:45:28.430Z,994.60
2022-10-20T09:46:28.434Z,994.53
2022-10-20T09:47:28.413Z,994.62
2022-10-20T09:48:28.439Z,994.52
2022-10-20T09:49:28.404Z,994.66
2022-10-20T09:50:28.390Z,994.58
2022-10-20T09:51:28.384Z,994.55
2022-10-20T09:52:28.369Z,994.59
2022-10-20T09:53:28.393Z,994.55
2022-10-20T09:54:28.382Z,994.48
2022-10-20T09:55:28.345Z,994.46
2022-10-20T09:56:28.338Z,994.39
2022-10-20T09:57:28.333Z,994.30
2022-10-20T09:58:28.349Z,994.30
2022-10-20T09:59:28.343Z,994.30
2022-10-20T10:00:39.675Z,994.33
2022-10-20T10:01:30.333Z,994.27
2022-10-20T10:02:28.297Z,994.33
2022-10-20T10:03:28.357Z,994.34
2022-10-20T10:04:28.274Z,994.36
2022-10-20T10:05:28.265Z,994.35
2022-10-20T10:06:28.258Z,994.34
2022-10-20T10:07:28.250Z,994.29
2022-10-20T10:08:28.343Z,994.30
2022-10-20T10:09:28.249Z,994.23
2022-10-20T10:10:28.243Z,994.15
2022-10-20T10:11:28.219Z,994.12
2022-10-20T10:12:28.210Z,994.09
2022-10-20T10:13:28.231Z,994.08
2022-10-20T10:14:28.194Z,994.04
2022-10-20T10:15:28.187Z,994.04
2022-10-20T10:16:28.187Z,994.13
2022-10-20T10:17:28.172Z,994.12
2022-10-20T10:18:28.196Z,994.17
2022-10-20T10:19:28.152Z,994.16
2022-10-20T10:20:28.156Z,994.09
2022-10-20T10:21:28.146Z,994.07
2022-10-20T10:22:28.141Z,994.10
2022-10-20T10:23:28.154Z,994.11
2022-10-20T10:24:28.116Z,994.07
2022-10-20T10:25:28.123Z,994.14
2022-10-20T10:26:28.121Z,994.10
2022-10-20T10:27:28.097Z,994.07
2022-10-20T10:28:28.121Z,994.11
2022-10-20T10:29:28.078Z,994.09
2022-10-20T10:30:28.082Z,994.10
2022-10-20T10:31:28.062Z,994.06
2022-10-20T10:32:28.056Z,993.97
2022-10-20T10:33:28.067Z,993.90
2022-10-20T10:34:28.040Z,993.91
2022-10-20T10:35:28.027Z,993.99
2022-10-20T10:36:28.020Z,993.98
2022-10-20T10:37:29.728Z,994.07
2022-10-20T10:38:27.996Z,993.96
2022-10-20T10:39:28.021Z,993.93
2022-10-20T10:40:27.986Z,993.90
2022-10-20T10:41:27.977Z,993.99
2022-10-20T10:42:27.977Z,993.95
2022-10-20T10:43:27.955Z,993.91
2022-10-20T10:44:27.973Z,993.77
2022-10-20T10:45:27.946Z,993.76
2022-10-20T10:46:27.941Z,993.70
2022-10-20T10:47:27.929Z,993.74
2022-10-20T10:48:27.925Z,993.74
2022-10-20T10:49:27.933Z,993.71
2022-10-20T10:50:27.911Z,993.72
2022-10-20T10:51:27.898Z,993.76
2022-10-20T10:52:27.890Z,993.86
2022-10-20T10:53:27.887Z,993.91
2022-10-20T10:54:27.906Z,993.98
2022-10-20T10:55:47.848Z,993.99
2022-10-20T10:56:29.859Z,993.95
2022-10-20T10:57:27.856Z,993.97
2022-10-20T10:58:27.842Z,993.93
2022-10-20T10:59:27.859Z,993.93
2022-10-20T11:00:27.823Z,993.97
2022-10-20T11:01:27.820Z,994.00
2022-10-20T11:02:27.807Z,993.99
2022-10-20T11:03:27.835Z,993.90
2022-10-20T11:04:27.794Z,993.83
2022-10-20T11:05:27.788Z,993.80
2022-10-20T11:06:27.780Z,993.82
2022-10-20T11:07:27.772Z,993.83
2022-10-20T11:08:27.832Z,993.84
2022-10-20T11:09:27.779Z,993.74
2022-10-20T11:10:27.749Z,993.68
2022-10-20T11:11:27.739Z,993.65
2022-10-20T11:12:27.732Z,993.69
2022-10-20T11:13:27.739Z,993.71
2022-10-20T11:14:27.740Z,993.72
2022-10-20T11:15:27.708Z,993.78
2022-10-20T11:16:27.698Z,993.76
2022-10-20T11:17:27.691Z,993.75
2022-10-20T11:18:27.684Z,993.77
2022-10-20T11:19:27.702Z,993.70
2022-10-20T11:20:27.667Z,993.72
2022-10-20T11:21:27.662Z,993.73
2022-10-20T11:22:27.651Z,993.68
2022-10-20T11:23:27.695Z,993.66
2022-10-20T11:24:27.666Z,993.68
2022-10-20T11:25:27.623Z,993.63
2022-10-20T11:26:29.203Z,993.63
2022-10-20T11:27:27.610Z,993.56
2022-10-20T11:28:27.601Z,993.62
2022-10-20T11:29:27.621Z,993.56
2022-10-20T11:30:27.598Z,993.63
2022-10-20T11:31:27.596Z,993.59
2022-10-20T11:32:27.613Z,993.58
2022-10-20T11:33:27.566Z,993.61
2022-10-20T11:34:27.554Z,993.66
2022-10-20T11:35:27.574Z,993.54
2022-10-20T11:36:27.543Z,993.52
2022-10-20T11:37:27.580Z,993.49
2022-10-20T11:38:27.519Z,993.38
2022-10-20T11:39:28.521Z,993.46
2022-10-20T11:40:27.536Z,993.44
2022-10-20T11:41:27.507Z,993.45
2022-10-20T11:42:27.506Z,993.39
2022-10-20T11:43:27.489Z,993.41
2022-10-20T11:44:27.476Z,993.37
2022-10-20T11:45:27.494Z,993.35
2022-10-20T11:46:27.462Z,993.30
2022-10-20T11:47:27.454Z,993.31
2022-10-20T11:48:27.447Z,993.33
2022-10-20T11:49:27.438Z,993.34
2022-10-20T11:50:27.454Z,993.31
2022-10-20T11:51:27.426Z,993.28
2022-10-20T11:52:27.412Z,993.23
2022-10-20T11:53:27.406Z,993.17
2022-10-20T11:54:27.400Z,993.18
2022-10-20T11:55:27.417Z,993.20
2022-10-20T11:56:27.388Z,993.13
2022-10-20T11:57:27.373Z,993.19
2022-10-20T11:58:27.368Z,993.16
2022-10-20T11:59:27.361Z,993.21
2022-10-20T12:00:27.378Z,993.13
2022-10-20T12:01:27.347Z,993.24
2022-10-20T12:02:27.339Z,993.17
2022-10-20T12:03:27.330Z,993.16
2022-10-20T12:04:27.343Z,993.23
2022-10-20T12:05:27.306Z,993.16
2022-10-20T12:06:28.307Z,993.20
2022-10-20T12:07:27.298Z,993.22
2022-10-20T12:08:30.939Z,993.21
2022-10-20T12:10:27.278Z,993.15
2022-10-20T12:11:27.270Z,993.12
2022-10-20T12:12:27.258Z,993.09
2022-10-20T12:13:27.251Z,993.09
2022-10-20T12:14:27.268Z,993.16
2022-10-20T12:15:27.234Z,993.15
2022-10-20T12:16:27.238Z,993.17
2022-10-20T12:17:27.222Z,993.16
2022-10-20T12:18:27.214Z,993.13
2022-10-20T12:19:27.232Z,993.19
2022-10-20T12:20:27.199Z,993.22
2022-10-20T12:21:30.180Z,993.23
2022-10-20T12:22:28.181Z,993.20
2022-10-20T12:23:27.175Z,993.21
2022-10-20T12:24:27.196Z,993.24
2022-10-20T12:25:27.163Z,993.30
2022-10-20T12:26:27.163Z,993.38
2022-10-20T12:27:27.143Z,993.31
2022-10-20T12:28:27.161Z,993.41
2022-10-20T12:29:27.155Z,993.36
2022-10-20T12:30:27.119Z,993.34